createdAt,value
2019-02-20T00:01:03.151Z,3.60
2019-02-20T00:03:31.468Z,3.60
2019-02-20T00:05:59.966Z,3.50
2019-02-20T00:08:28.343Z,3.50
2019-02-20T00:10:56.797Z,3.40
2019-02-20T00:13:25.264Z,3.30
2019-02-20T00:15:53.594Z,3.40
2019-02-20T00:18:21.904Z,3.40
2019-02-20T00:20:50.360Z,3.40
2019-02-20T00:23:18.689Z,3.30
2019-02-20T00:25:46.994Z,3.20
2019-02-20T00:28:15.672Z,3.30
2019-02-20T00:30:43.993Z,3.20
2019-02-20T00:33:12.312Z,3.20
2019-02-20T00:35:41.240Z,3.20
2019-02-20T00:38:09.560Z,3.10
2019-02-20T00:40:37.907Z,3.10
2019-02-20T00:43:06.375Z,3.10
2019-02-20T00:45:45.836Z,3.10
2019-02-20T00:48:23.710Z,3.10
2019-02-20T00:50:54.920Z,3.00
2019-02-20T00:53:29.418Z,3.00
2019-02-20T00:55:57.736Z,2.90
2019-02-20T00:58:26.048Z,2.90
2019-02-20T01:00:54.813Z,2.90
2019-02-20T01:03:23.124Z,2.90
2019-02-20T01:05:51.570Z,2.90
2019-02-20T01:08:20.561Z,2.90
2019-02-20T01:10:49.328Z,2.90
2019-02-20T01:13:17.671Z,2.90
2019-02-20T01:15:46.615Z,2.90
2019-02-20T01:18:14.961Z,2.90
2019-02-20T01:20:43.246Z,2.90
2019-02-20T01:23:11.748Z,2.90
2019-02-20T01:25:40.154Z,2.90
2019-02-20T01:28:08.459Z,2.80
2019-02-20T01:30:36.889Z,2.90
2019-02-20T01:33:05.215Z,2.90
2019-02-20T01:35:33.531Z,2.90
2019-02-20T01:38:02.179Z,2.80
2019-02-20T01:40:30.485Z,2.80
2019-02-20T01:42:58.768Z,2.90
2019-02-20T01:45:27.227Z,2.80
2019-02-20T01:47:55.527Z,2.80
2019-02-20T01:50:23.902Z,2.80
2019-02-20T01:52:52.765Z,2.80
2019-02-20T01:55:21.052Z,2.80
2019-02-20T01:57:49.344Z,2.80
2019-02-20T02:00:18.030Z,2.80
2019-02-20T02:02:46.384Z,2.80
2019-02-20T02:05:15.920Z,2.80
2019-02-20T02:07:43.319Z,2.80
2019-02-20T02:10:11.817Z,2.80
2019-02-20T02:12:40.158Z,2.80
2019-02-20T02:15:09.177Z,2.80
2019-02-20T02:17:37.495Z,2.80
2019-02-20T02:20:06.668Z,2.80
2019-02-20T02:22:35.442Z,2.70
2019-02-20T02:25:04.003Z,2.70
2019-02-20T02:27:32.296Z,2.70
2019-02-20T02:30:00.715Z,2.70
2019-02-20T02:32:29.021Z,2.70
2019-02-20T02:34:57.378Z,2.60
2019-02-20T02:37:26.015Z,2.60
2019-02-20T02:39:54.347Z,2.70
2019-02-20T02:42:22.745Z,2.70
2019-02-20T02:44:51.473Z,2.70
2019-02-20T02:47:19.792Z,2.70
2019-02-20T02:49:48.160Z,2.70
2019-02-20T02:52:16.907Z,2.70
2019-02-20T02:54:45.232Z,2.70
2019-02-20T02:57:13.567Z,2.70
2019-02-20T02:59:42.115Z,2.70
2019-02-20T03:02:10.454Z,2.70
2019-02-20T03:04:38.792Z,2.70
2019-02-20T03:07:07.485Z,2.60
2019-02-20T03:09:35.806Z,2.60
2019-02-20T03:12:04.488Z,2.60
2019-02-20T03:14:33.197Z,2.60
2019-02-20T03:17:01.523Z,2.60
2019-02-20T03:19:29.846Z,2.60
2019-02-20T03:21:58.485Z,2.60
2019-02-20T03:24:26.977Z,2.60
2019-02-20T03:26:55.377Z,2.60
2019-02-20T03:29:23.856Z,2.60
2019-02-20T03:31:52.193Z,2.60
2019-02-20T03:34:20.527Z,2.60
2019-02-20T03:36:49.061Z,2.60
2019-02-20T03:39:17.345Z,2.60
2019-02-20T03:41:45.677Z,2.60
2019-02-20T03:44:14.189Z,2.70
2019-02-20T03:46:42.558Z,2.60
2019-02-20T03:49:10.875Z,2.60
2019-02-20T03:51:39.368Z,2.70
2019-02-20T03:54:07.737Z,2.60
2019-02-20T03:56:36.028Z,2.70
2019-02-20T03:59:04.629Z,2.80
2019-02-20T04:01:33.096Z,2.90
2019-02-20T04:04:01.434Z,2.90
2019-02-20T04:06:30.173Z,2.90
2019-02-20T04:08:58.499Z,2.90
2019-02-20T04:11:26.953Z,2.90
2019-02-20T04:13:55.380Z,2.90
2019-02-20T04:16:23.691Z,2.90
2019-02-20T04:18:51.983Z,2.90
2019-02-20T04:21:20.471Z,2.90
2019-02-20T04:23:48.789Z,2.90
2019-02-20T04:26:17.147Z,2.80
2019-02-20T04:28:45.528Z,2.90
2019-02-20T04:31:13.825Z,2.80
2019-02-20T04:33:42.230Z,2.80
2019-02-20T04:36:10.682Z,2.80
2019-02-20T04:38:38.993Z,2.90
2019-02-20T04:41:07.311Z,2.90
2019-02-20T04:43:36.179Z,2.80
2019-02-20T04:46:04.474Z,2.80
2019-02-20T04:48:32.916Z,2.70
2019-02-20T04:51:01.495Z,2.70
2019-02-20T04:53:29.955Z,2.70
2019-02-20T04:55:58.283Z,2.80
2019-02-20T04:58:27.068Z,2.70
2019-02-20T05:00:55.354Z,2.70
2019-02-20T05:03:23.729Z,2.60
2019-02-20T05:05:52.345Z,2.60
2019-02-20T05:08:20.652Z,2.40
2019-02-20T05:10:49.014Z,2.50
2019-02-20T05:13:17.416Z,2.50
2019-02-20T05:15:45.701Z,2.40
2019-02-20T05:18:14.068Z,2.40
2019-02-20T05:20:42.482Z,2.30
2019-02-20T05:23:10.784Z,2.40
2019-02-20T05:25:39.166Z,2.30
2019-02-20T05:28:07.592Z,2.30
2019-02-20T05:30:35.949Z,2.20
2019-02-20T05:33:04.321Z,2.10
2019-02-20T05:35:33.056Z,2.10
2019-02-20T05:38:01.358Z,2.00
2019-02-20T05:40:29.699Z,2.00
2019-02-20T05:42:58.120Z,2.00
2019-02-20T05:45:26.648Z,2.00
2019-02-20T05:47:54.993Z,1.90
2019-02-20T05:50:23.398Z,1.80
2019-02-20T05:52:52.000Z,1.80
2019-02-20T05:55:20.338Z,1.80
2019-02-20T05:57:48.778Z,1.80
2019-02-20T06:00:17.149Z,1.70
2019-02-20T06:02:45.472Z,1.80
2019-02-20T06:05:14.484Z,1.90
2019-02-20T06:07:42.857Z,1.90
2019-02-20T06:10:11.264Z,1.90
2019-02-20T06:12:39.695Z,1.90
2019-02-20T06:15:08.651Z,1.80
2019-02-20T06:17:38.621Z,1.80
2019-02-20T06:20:07.210Z,1.80
2019-02-20T06:22:36.200Z,1.70
2019-02-20T06:25:04.600Z,1.60
2019-02-20T06:27:34.332Z,1.50
2019-02-20T06:30:03.234Z,1.50
2019-02-20T06:32:31.621Z,1.60
2019-02-20T06:35:00.415Z,1.50
2019-02-20T06:37:28.926Z,1.50
2019-02-20T06:39:57.262Z,1.50
2019-02-20T06:42:25.847Z,1.50
2019-02-20T06:44:54.218Z,1.50
2019-02-20T06:47:22.509Z,1.50
2019-02-20T06:49:50.928Z,1.50
2019-02-20T06:52:19.352Z,1.50
2019-02-20T06:54:53.977Z,1.60
2019-02-20T06:57:16.455Z,1.60
2019-02-20T06:59:44.803Z,1.60
2019-02-20T07:02:13.149Z,1.60
2019-02-20T07:04:51.829Z,1.60
2019-02-20T07:10:40.502Z,1.70
2019-02-20T07:13:18.283Z,1.70
2019-02-20T07:16:03.906Z,1.60
2019-02-20T07:18:45.125Z,1.70
2019-02-20T07:21:27.139Z,1.70
2019-02-20T07:24:24.282Z,1.70
2019-02-20T07:27:09.995Z,1.70
2019-02-20T07:29:43.322Z,1.70
2019-02-20T07:32:14.515Z,1.70
2019-02-20T07:34:42.843Z,1.80
2019-02-20T07:37:11.182Z,1.80
2019-02-20T07:39:39.729Z,1.80
2019-02-20T07:42:08.054Z,1.90
2019-02-20T07:44:36.438Z,1.90
2019-02-20T07:47:05.191Z,1.90
2019-02-20T07:49:33.509Z,1.90
2019-02-20T07:52:01.831Z,2.00
2019-02-20T07:54:30.752Z,2.10
2019-02-20T07:56:59.072Z,2.10
2019-02-20T07:59:27.463Z,2.10
2019-02-20T08:01:55.986Z,2.20
2019-02-20T08:04:24.283Z,2.20
2019-02-20T08:06:52.702Z,2.20
2019-02-20T08:09:21.633Z,2.20
2019-02-20T08:11:50.011Z,2.30
2019-02-20T08:14:18.343Z,2.30
2019-02-20T08:16:52.384Z,2.30
2019-02-20T08:19:15.124Z,2.30
2019-02-20T08:21:43.484Z,2.40
2019-02-20T08:24:12.112Z,2.40
2019-02-20T08:26:40.363Z,2.50
2019-02-20T08:29:08.699Z,2.50
2019-02-20T08:31:37.180Z,2.50
2019-02-20T08:34:05.477Z,2.60
2019-02-20T08:36:33.832Z,2.60
2019-02-20T08:39:02.467Z,2.70
2019-02-20T08:41:30.951Z,2.80
2019-02-20T08:43:59.266Z,2.80
2019-02-20T08:46:27.912Z,2.80
2019-02-20T08:48:56.261Z,2.90
2019-02-20T08:51:24.665Z,3.00
2019-02-20T08:53:53.214Z,3.10
2019-02-20T08:56:21.605Z,3.20
2019-02-20T08:58:50.106Z,3.20
2019-02-20T09:01:18.651Z,3.20
2019-02-20T09:03:47.034Z,3.40
2019-02-20T09:06:15.351Z,3.70
2019-02-20T09:08:44.100Z,4.20
2019-02-20T09:11:12.701Z,4.70
2019-02-20T09:13:41.030Z,5.20
2019-02-20T09:16:09.883Z,5.40
2019-02-20T09:18:38.339Z,5.60
2019-02-20T09:21:06.701Z,5.80
2019-02-20T09:23:35.145Z,5.90
2019-02-20T09:26:03.534Z,6.20
2019-02-20T09:28:31.965Z,6.60
2019-02-20T09:31:00.716Z,6.70
2019-02-20T09:33:29.046Z,6.50
2019-02-20T09:35:57.324Z,6.60
2019-02-20T09:38:25.967Z,6.60
2019-02-20T09:40:54.303Z,6.50
2019-02-20T09:43:22.701Z,6.70
2019-02-20T09:45:51.292Z,6.50
2019-02-20T09:48:19.644Z,6.90
2019-02-20T09:50:47.983Z,7.20
2019-02-20T09:53:16.463Z,6.80
2019-02-20T09:55:51.093Z,7.60
2019-02-20T09:58:13.251Z,7.50
2019-02-20T10:00:42.007Z,7.30
2019-02-20T10:03:10.351Z,7.60
2019-02-20T10:05:38.733Z,6.80
2019-02-20T10:08:07.108Z,7.20
2019-02-20T10:10:35.413Z,7.80
2019-02-20T10:13:03.894Z,7.70
2019-02-20T10:15:32.251Z,7.20
2019-02-20T10:18:00.608Z,7.00
2019-02-20T10:20:28.912Z,7.00
2019-02-20T10:22:57.250Z,7.00
2019-02-20T10:25:25.618Z,7.50
2019-02-20T10:27:53.963Z,7.70
2019-02-20T10:30:22.310Z,7.80
2019-02-20T10:32:50.638Z,7.70
2019-02-20T10:35:19.011Z,7.00
2019-02-20T10:37:47.379Z,6.70
2019-02-20T10:40:15.705Z,6.90
2019-02-20T10:42:44.050Z,6.80
2019-02-20T10:45:12.414Z,7.10
2019-02-20T10:47:40.752Z,7.50
2019-02-20T10:50:09.348Z,7.30
2019-02-20T10:52:37.651Z,7.30
2019-02-20T10:55:06.402Z,7.30
2019-02-20T10:57:34.777Z,7.50
2019-02-20T11:00:03.127Z,7.40
2019-02-20T11:02:31.751Z,6.80
2019-02-20T11:05:00.146Z,5.10
2019-02-20T11:07:28.387Z,4.60
2019-02-20T11:09:56.837Z,4.40
2019-02-20T11:12:25.191Z,4.20
2019-02-20T11:14:53.492Z,4.10
2019-02-20T11:17:21.776Z,4.00
2019-02-20T11:19:50.169Z,4.00
2019-02-20T11:22:18.499Z,3.90
2019-02-20T11:24:46.845Z,4.00
2019-02-20T11:27:15.157Z,4.00
2019-02-20T11:29:43.468Z,3.80
2019-02-20T11:32:12.006Z,3.80
2019-02-20T11:34:40.349Z,3.80
2019-02-20T11:37:08.668Z,3.70
2019-02-20T11:39:37.908Z,3.70
2019-02-20T11:42:05.406Z,3.70
2019-02-20T11:44:33.719Z,3.70
2019-02-20T11:47:02.031Z,3.70
2019-02-20T11:49:30.363Z,3.80
2019-02-20T11:51:58.682Z,3.70
2019-02-20T11:54:26.969Z,3.70
2019-02-20T11:56:55.292Z,3.80
2019-02-20T11:59:23.643Z,3.80
2019-02-20T12:01:51.935Z,3.90
2019-02-20T12:04:20.341Z,3.90
2019-02-20T12:06:48.822Z,3.80
2019-02-20T12:09:17.184Z,3.80
2019-02-20T12:11:45.516Z,3.80
2019-02-20T12:14:13.845Z,3.80
2019-02-20T12:16:42.176Z,3.70
2019-02-20T12:19:10.580Z,3.70
2019-02-20T12:21:38.898Z,3.70
2019-02-20T12:24:07.244Z,3.80
2019-02-20T12:26:35.553Z,3.80
2019-02-20T12:29:03.900Z,3.90
2019-02-20T12:31:32.198Z,3.90
2019-02-20T12:34:01.643Z,3.90
2019-02-20T12:36:29.080Z,4.00
2019-02-20T12:38:57.743Z,4.00
2019-02-20T12:41:26.103Z,3.90
2019-02-20T12:43:54.431Z,3.90
2019-02-20T12:46:22.748Z,3.90
2019-02-20T12:48:51.086Z,3.90
2019-02-20T12:51:19.396Z,3.90
2019-02-20T12:53:47.718Z,3.90
2019-02-20T12:56:16.138Z,3.90
2019-02-20T12:58:44.504Z,3.90
2019-02-20T13:01:12.875Z,3.90
2019-02-20T13:03:41.174Z,3.90
2019-02-20T13:06:10.020Z,3.80
2019-02-20T13:08:38.352Z,3.80
2019-02-20T13:11:06.668Z,3.90
2019-02-20T13:13:35.320Z,3.90
2019-02-20T13:16:09.422Z,3.90
2019-02-20T13:18:32.219Z,3.90
2019-02-20T13:21:00.716Z,3.90
2019-02-20T13:23:29.056Z,3.80
2019-02-20T13:25:57.345Z,3.80
2019-02-20T13:28:25.734Z,3.80
2019-02-20T13:30:54.075Z,3.80
2019-02-20T13:33:22.345Z,3.90
2019-02-20T13:35:50.657Z,3.80
2019-02-20T13:38:18.982Z,3.90
2019-02-20T13:40:47.681Z,3.80
2019-02-20T13:43:16.043Z,3.80
2019-02-20T13:45:44.632Z,3.70
2019-02-20T13:48:12.964Z,3.70
2019-02-20T13:50:41.326Z,3.60
2019-02-20T13:53:09.648Z,3.70
2019-02-20T13:55:38.019Z,3.60
2019-02-20T13:58:06.424Z,3.60
2019-02-20T14:00:34.779Z,3.50
2019-02-20T14:03:03.189Z,3.50
2019-02-20T14:05:31.542Z,3.40
2019-02-20T14:08:00.079Z,3.40
2019-02-20T14:10:28.912Z,3.40
2019-02-20T14:12:57.232Z,3.30
2019-02-20T14:15:25.645Z,3.20
2019-02-20T14:17:54.011Z,3.20
2019-02-20T14:20:22.440Z,3.20
2019-02-20T14:22:50.816Z,3.10
2019-02-20T14:25:19.164Z,3.10
2019-02-20T14:27:47.667Z,3.00
2019-02-20T14:30:16.057Z,3.00
2019-02-20T14:32:44.595Z,3.00
2019-02-20T14:35:14.854Z,2.90
2019-02-20T14:37:41.373Z,2.90
2019-02-20T14:40:09.825Z,2.90
2019-02-20T14:42:38.129Z,2.90
2019-02-20T14:45:07.227Z,2.80
2019-02-20T14:47:36.308Z,2.80
2019-02-20T14:50:05.097Z,2.70
2019-02-20T14:52:33.452Z,2.70
2019-02-20T14:55:01.843Z,2.60
2019-02-20T14:57:30.244Z,2.60
2019-02-20T14:59:59.133Z,2.50
2019-02-20T15:02:27.446Z,2.50
2019-02-20T15:04:55.760Z,2.50
2019-02-20T15:07:24.122Z,2.40
2019-02-20T15:09:54.073Z,2.40
2019-02-20T15:12:21.068Z,2.30
2019-02-20T15:14:49.392Z,2.30
2019-02-20T15:17:17.837Z,2.20
2019-02-20T15:19:46.236Z,2.20
2019-02-20T15:22:14.618Z,2.10
2019-02-20T15:24:42.930Z,2.10
2019-02-20T15:27:11.331Z,2.10
2019-02-20T15:29:39.699Z,2.00
2019-02-20T15:32:08.057Z,1.90
2019-02-20T15:34:36.795Z,1.90
2019-02-20T15:37:05.173Z,1.80
2019-02-20T15:39:33.511Z,1.70
2019-02-20T15:42:01.869Z,1.70
2019-02-20T15:44:30.222Z,1.60
2019-02-20T15:46:58.575Z,1.60
2019-02-20T15:49:26.933Z,1.50
2019-02-20T15:51:55.285Z,1.40
2019-02-20T15:54:23.650Z,1.20
2019-02-20T15:56:52.010Z,1.00
2019-02-20T15:59:20.451Z,0.90
2019-02-20T16:01:48.812Z,0.70
2019-02-20T16:04:17.190Z,0.60
2019-02-20T16:06:45.610Z,0.50
2019-02-20T16:09:13.923Z,0.40
2019-02-20T16:11:42.641Z,0.30
2019-02-20T16:14:10.977Z,0.10
2019-02-20T16:16:40.782Z,0.00
2019-02-20T16:19:07.725Z,-0.10
2019-02-20T16:21:36.098Z,-0.20
2019-02-20T16:24:04.494Z,-0.30
2019-02-20T16:26:32.880Z,-0.40
2019-02-20T16:29:01.262Z,-0.50
2019-02-20T16:31:29.612Z,-0.50
2019-02-20T16:33:58.011Z,-0.60
2019-02-20T16:36:26.399Z,-0.80
2019-02-20T16:38:54.737Z,-0.80
2019-02-20T16:41:23.130Z,-0.90
2019-02-20T16:43:51.515Z,-1.00
2019-02-20T16:46:19.845Z,-1.10
2019-02-20T16:48:48.255Z,-1.20
2019-02-20T16:51:16.637Z,-1.20
2019-02-20T16:53:44.951Z,-1.30
2019-02-20T16:56:13.680Z,-1.30
2019-02-20T16:58:43.233Z,-1.30
2019-02-20T17:01:10.413Z,-1.30
2019-02-20T17:03:38.820Z,-1.40
2019-02-20T17:06:07.256Z,-1.40
2019-02-20T17:08:35.673Z,-1.40
2019-02-20T17:11:04.314Z,-1.40
2019-02-20T17:13:32.720Z,-1.40
2019-02-20T17:16:01.071Z,-1.50
2019-02-20T17:18:29.466Z,-1.50
2019-02-20T17:20:57.772Z,-1.60
2019-02-20T17:23:26.111Z,-1.70
2019-02-20T17:25:54.537Z,-1.70
2019-02-20T17:28:22.884Z,-1.80
2019-02-20T17:30:51.254Z,-1.80
2019-02-20T17:33:19.705Z,-1.80
2019-02-20T17:35:48.472Z,-1.80
2019-02-20T17:38:16.841Z,-1.80
2019-02-20T17:40:45.203Z,-1.80
2019-02-20T17:43:13.539Z,-1.80
2019-02-20T17:45:41.934Z,-1.70
2019-02-20T17:48:10.288Z,-1.80
2019-02-20T17:50:38.589Z,-1.90
2019-02-20T17:53:07.280Z,-1.90
2019-02-20T17:55:35.725Z,-2.00
2019-02-20T17:58:04.184Z,-2.00
2019-02-20T18:00:32.793Z,-2.10
2019-02-20T18:03:01.141Z,-2.10
2019-02-20T18:05:29.583Z,-2.20
2019-02-20T18:07:58.004Z,-2.20
2019-02-20T18:10:26.363Z,-2.10
2019-02-20T18:12:54.732Z,-2.10
2019-02-20T18:15:24.706Z,-2.10
2019-02-20T18:17:53.055Z,-2.00
2019-02-20T18:20:21.372Z,-2.00
2019-02-20T18:22:49.738Z,-2.10
2019-02-20T18:25:18.101Z,-2.20
2019-02-20T18:27:46.535Z,-2.30
2019-02-20T18:30:14.954Z,-2.40
2019-02-20T18:32:43.642Z,-2.40
2019-02-20T18:35:12.069Z,-2.40
2019-02-20T18:37:41.289Z,-2.50
2019-02-20T18:40:10.188Z,-2.50
2019-02-20T18:42:38.595Z,-2.50
2019-02-20T18:45:08.806Z,-2.50
2019-02-20T18:47:37.300Z,-2.60
2019-02-20T18:50:06.482Z,-2.60
2019-02-20T18:52:34.854Z,-2.60
2019-02-20T18:55:05.944Z,-2.70
2019-02-20T18:57:31.842Z,-2.70
2019-02-20T19:00:00.408Z,-2.70
2019-02-20T19:02:28.971Z,-2.70
2019-02-20T19:04:57.689Z,-2.80
2019-02-20T19:07:26.136Z,-2.80
2019-02-20T19:09:54.611Z,-2.80
2019-02-20T19:14:37.256Z,-2.80
2019-02-20T19:17:17.271Z,-2.90
2019-02-20T19:19:52.308Z,-2.90
2019-02-20T19:22:33.066Z,-2.90
2019-02-20T19:25:58.905Z,-3.00
2019-02-20T19:28:43.972Z,-3.00
2019-02-20T19:31:15.208Z,-3.10
2019-02-20T19:34:57.231Z,-3.10
2019-02-20T19:37:43.241Z,-3.20
2019-02-20T19:40:21.010Z,-3.20
2019-02-20T19:44:02.740Z,-3.20
2019-02-20T19:47:00.763Z,-3.20
2019-02-20T19:50:42.400Z,-3.20
2019-02-20T19:53:20.879Z,-3.20
2019-02-20T19:56:01.758Z,-3.30
2019-02-20T19:58:42.880Z,-3.40
2019-02-20T20:01:22.162Z,-3.40
2019-02-20T20:04:03.490Z,-3.50
2019-02-20T20:06:48.238Z,-3.50
2019-02-20T20:10:36.986Z,-3.50
2019-02-20T20:13:42.835Z,-3.60
2019-02-20T20:16:24.283Z,-3.60
2019-02-20T20:19:05.823Z,-3.50
2019-02-20T20:22:00.441Z,-3.50
2019-02-20T20:24:38.666Z,-3.40
2019-02-20T20:27:33.412Z,-3.40
2019-02-20T20:30:27.794Z,-3.50
2019-02-20T20:33:09.003Z,-3.40
2019-02-20T20:35:48.139Z,-3.30
2019-02-20T20:38:32.158Z,-3.30
2019-02-20T20:41:18.094Z,-3.40
2019-02-20T20:44:08.008Z,-3.50
2019-02-20T20:46:59.318Z,-3.50
2019-02-20T20:53:41.561Z,-3.60
2019-02-20T20:56:32.272Z,-3.50
2019-02-20T20:59:17.545Z,-3.50
2019-02-20T21:02:07.187Z,-3.40
2019-02-20T21:04:47.585Z,-3.40
2019-02-20T21:07:58.604Z,-3.30
2019-02-20T21:12:40.789Z,-3.30
2019-02-20T21:16:21.039Z,-3.20
2019-02-20T21:19:08.319Z,-3.30
2019-02-20T21:21:50.989Z,-3.30
2019-02-20T21:26:29.627Z,-3.40
2019-02-20T21:29:06.474Z,-3.50
2019-02-20T21:31:46.688Z,-3.50
2019-02-20T21:34:34.109Z,-3.50
2019-02-20T21:37:25.183Z,-3.50
2019-02-20T21:40:07.335Z,-3.60
2019-02-20T21:42:45.657Z,-3.60
2019-02-20T21:45:26.421Z,-3.60
2019-02-20T21:48:06.324Z,-3.70
2019-02-20T21:50:41.328Z,-3.70
2019-02-20T21:54:26.856Z,-3.60
2019-02-20T21:57:09.138Z,-3.70
2019-02-20T22:00:03.592Z,-3.70
2019-02-20T22:02:46.761Z,-3.70
2019-02-20T22:07:56.083Z,-3.70
2019-02-20T22:10:39.083Z,-3.70
2019-02-20T22:13:20.485Z,-3.80
2019-02-20T22:16:03.796Z,-3.80
2019-02-20T22:20:49.916Z,-3.80
2019-02-20T22:23:29.942Z,-3.80
2019-02-20T22:26:13.681Z,-3.90
2019-02-20T22:28:58.449Z,-3.90
2019-02-20T22:31:36.875Z,-3.90
2019-02-20T22:34:16.372Z,-4.00
2019-02-20T22:36:54.925Z,-4.00
2019-02-20T22:39:32.080Z,-4.00
2019-02-20T22:42:10.014Z,-4.00
2019-02-20T22:45:01.365Z,-4.00
2019-02-20T22:47:46.259Z,-4.10
2019-02-20T22:50:30.564Z,-4.10
2019-02-20T22:53:10.386Z,-4.10
2019-02-20T22:55:47.680Z,-4.10
2019-02-20T22:58:27.027Z,-4.10
2019-02-20T23:03:10.572Z,-4.10
2019-02-20T23:05:52.663Z,-4.10
2019-02-20T23:08:36.048Z,-4.00
2019-02-20T23:13:29.050Z,-4.00
2019-02-20T23:15:57.506Z,-4.00
2019-02-20T23:18:25.917Z,-4.00
2019-02-20T23:20:54.318Z,-3.90
2019-02-20T23:23:22.688Z,-3.90
2019-02-20T23:25:51.059Z,-3.80
2019-02-20T23:28:19.373Z,-3.80
2019-02-20T23:30:48.092Z,-3.70
2019-02-20T23:33:16.470Z,-3.70
2019-02-20T23:35:44.993Z,-3.70
2019-02-20T23:38:13.353Z,-3.70
2019-02-20T23:40:41.701Z,-3.60
2019-02-20T23:43:10.299Z,-3.60
2019-02-20T23:45:38.601Z,-3.50
2019-02-20T23:48:06.877Z,-3.50
2019-02-20T23:50:35.230Z,-3.30
2019-02-20T23:53:03.588Z,-3.30
2019-02-20T23:55:31.930Z,-3.20
2019-02-20T23:58:00.293Z,-3.20
